LEMD Información de aeropuertos

Información de pistas
Pista 14L Longitud 11483 ft Ancho 197 ft
Elevación 1942 ft Umbral 0 ft Rumbo 144
Pista 32R Longitud 11483 ft Ancho 197 ft
Elevación 1876 ft Umbral 1640 ft Rumbo 324
Pista 14R Longitud 13084 ft Ancho 197 ft
Elevación 1995 ft Umbral 0 ft Rumbo 144
Pista 32L Longitud 13084 ft Ancho 197 ft
Elevación 1909 ft Umbral 3445 ft Rumbo 324
Pista 18L Longitud 11483 ft Ancho 197 ft
Elevación 1919 ft Umbral 1640 ft Rumbo 181
Pista 36R Longitud 11483 ft Ancho 197 ft
Elevación 1942 ft Umbral 0 ft Rumbo 1
Pista 18R Longitud 13711 ft Ancho 197 ft
Elevación 1998 ft Umbral 3232 ft Rumbo 181
Pista 36L Longitud 13711 ft Ancho 197 ft
Elevación 1985 ft Umbral 0 ft Rumbo 2
Frecuencias
Tipo APP Nombre MADRID APP Frequencia 127.5 MHZ
Tipo ATIS Nombre ATIS Frequencia 118.25 MHZ
Tipo ATIS DEP Nombre ATIS Depar Frequencia 130.85 MHZ
Tipo CLD Nombre Delivery E Frequencia 130.075 MHZ
Tipo CLD Nombre Delivery W Frequencia 130.35 MHZ
Tipo EMR Nombre FIRE Frequencia 122.975 MHZ
Tipo GND Nombre GND Frequencia 121.85 MHZ
Tipo TWR Nombre TWR 36L Frequencia 118.07 MHZ
Tipo TWR Nombre TWR 14R Frequencia 118.15 MHZ
Tipo TWR Nombre TWR 36R Frequencia 118.67 MHZ
Tipo TWR Nombre TWR 14L Frequencia 118.975 MHZ
Radioayudas
Tipo NDB Nombre Alcobendas Frequencia 417 KHZ
Tipo VOR-DME Nombre Barajas Frequencia 116450 KHZ
Tipo VOR-DME Nombre Perales Frequencia 116950 KHZ
Tipo VOR-DME Nombre S.S.rRyes Frequencia 117850 KHZ
Información meteorológica y NOTAM
ADDS - METARS form results

(0514 UTC 27 January 2022)
Data provider http://aviationweather.gov/metar/data/
 
METAR text: LEMD 270500Z 01003KT CAVOK M02/M04 Q1028 NOSIG
Conditions at: LEMD (MADRID/BARAJAS , ES) observed 0500 UTC 27 January 2022
Temperature: -2.0°C (28°F)
Dewpoint: -4.0°C (25°F) [RH = 86%]
Pressure (altimeter): 30.35 inches Hg (1028.0 mb)
Winds: from the N (10 degrees) at 3 MPH (3 knots; 1.5 m/s)
Visibility: 6 or more miles (10+ km)
Ceiling: ceiling and visibility are OK
Clouds: unknown
Weather: no significant weather observed at this time

METAR text: LEMD 270430Z 35003KT CAVOK M01/M03 Q1028 NOSIG
Conditions at: LEMD (MADRID/BARAJAS , ES) observed 0430 UTC 27 January 2022
Temperature: -1.0°C (30°F)
Dewpoint: -3.0°C (27°F) [RH = 86%]
Pressure (altimeter): 30.35 inches Hg (1028.0 mb)
Winds: from the N (350 degrees) at 3 MPH (3 knots; 1.5 m/s)
Visibility: 6 or more miles (10+ km)
Ceiling: ceiling and visibility are OK
Clouds: unknown
Weather: no significant weather observed at this time

Forecast for: LEMD (MADRID/BARAJAS , ES)
Text: TAF LEMD 262300Z 2700/2806 VRB05KT CAVOK TX13/2715Z TNM03/2706Z
Forecast period: 0000 UTC 27 January 2022 to 0600 UTC 28 January 2022
Forecast type: FROM: standard forecast or significant change
Winds: variable direction winds at 6 MPH (5 knots; 2.6 m/s)
Visibility: 6 or more miles (10+ km)
Ceiling: unknown
Clouds: missing
Weather: no significant weather forecast for this period